sensor_id;sensor_type;location;lat;lon;timestamp;temperature;humidity
66119;DHT22;52912;48.564;9.302;2024-03-17T00:01:32;7.87;98.18
66119;DHT22;52912;48.564;9.302;2024-03-17T00:03:59;7.87;98.28
66119;DHT22;52912;48.564;9.302;2024-03-17T00:06:24;7.94;98.08
66119;DHT22;52912;48.564;9.302;2024-03-17T00:08:50;7.83;98.10
66119;DHT22;52912;48.564;9.302;2024-03-17T00:11:15;7.84;97.89
66119;DHT22;52912;48.564;9.302;2024-03-17T00:13:41;7.73;98.04
66119;DHT22;52912;48.564;9.302;2024-03-17T00:16:06;7.70;98.27
66119;DHT22;52912;48.564;9.302;2024-03-17T00:18:32;7.56;98.55
66119;DHT22;52912;48.564;9.302;2024-03-17T00:20:58;7.60;98.48
66119;DHT22;52912;48.564;9.302;2024-03-17T00:23:24;7.62;97.72
66119;DHT22;52912;48.564;9.302;2024-03-17T00:25:49;7.53;98.29
66119;DHT22;52912;48.564;9.302;2024-03-17T00:28:15;7.36;98.61
66119;DHT22;52912;48.564;9.302;2024-03-17T00:30:40;7.26;99.03
66119;DHT22;52912;48.564;9.302;2024-03-17T00:33:06;7.25;99.30
66119;DHT22;52912;48.564;9.302;2024-03-17T00:35:31;7.28;99.45
66119;DHT22;52912;48.564;9.302;2024-03-17T00:37:58;7.39;99.04
66119;DHT22;52912;48.564;9.302;2024-03-17T00:40:23;7.42;97.88
66119;DHT22;52912;48.564;9.302;2024-03-17T00:42:49;7.25;98.34
66119;DHT22;52912;48.564;9.302;2024-03-17T00:45:14;7.16;98.55
66119;DHT22;52912;48.564;9.302;2024-03-17T00:47:40;7.15;98.86
66119;DHT22;52912;48.564;9.302;2024-03-17T00:50:06;7.15;99.15
66119;DHT22;52912;48.564;9.302;2024-03-17T00:52:32;7.16;99.42
66119;DHT22;52912;48.564;9.302;2024-03-17T00:54:59;7.22;99.36
66119;DHT22;52912;48.564;9.302;2024-03-17T00:57:24;7.21;99.21
66119;DHT22;52912;48.564;9.302;2024-03-17T00:59:50;7.12;99.49
66119;DHT22;52912;48.564;9.302;2024-03-17T01:02:16;7.21;99.37
66119;DHT22;52912;48.564;9.302;2024-03-17T01:04:41;6.98;99.74
66119;DHT22;52912;48.564;9.302;2024-03-17T01:07:07;7.01;99.93
66119;DHT22;52912;48.564;9.302;2024-03-17T01:09:33;7.04;99.99
66119;DHT22;52912;48.564;9.302;2024-03-17T01:11:59;7.05;99.99
66119;DHT22;52912;48.564;9.302;2024-03-17T01:14:25;7.09;99.99
66119;DHT22;52912;48.564;9.302;2024-03-17T01:16:50;7.08;99.99
66119;DHT22;52912;48.564;9.302;2024-03-17T01:19:16;7.23;99.98
66119;DHT22;52912;48.564;9.302;2024-03-17T01:21:41;7.25;99.65
66119;DHT22;52912;48.564;9.302;2024-03-17T01:24:07;7.28;99.76
66119;DHT22;52912;48.564;9.302;2024-03-17T01:26:32;7.28;99.04
66119;DHT22;52912;48.564;9.302;2024-03-17T01:28:59;7.22;99.08
66119;DHT22;52912;48.564;9.302;2024-03-17T01:31:24;7.21;99.13
66119;DHT22;52912;48.564;9.302;2024-03-17T01:33:50;7.22;99.11
66119;DHT22;52912;48.564;9.302;2024-03-17T01:36:15;7.26;99.13
66119;DHT22;52912;48.564;9.302;2024-03-17T01:38:41;7.36;99.04
66119;DHT22;52912;48.564;9.302;2024-03-17T01:41:06;7.35;98.58
66119;DHT22;52912;48.564;9.302;2024-03-17T01:43:32;7.33;98.56
66119;DHT22;52912;48.564;9.302;2024-03-17T01:45:59;7.18;99.23
66119;DHT22;52912;48.564;9.302;2024-03-17T01:48:25;7.21;99.15
66119;DHT22;52912;48.564;9.302;2024-03-17T01:50:53;7.25;99.44
66119;DHT22;52912;48.564;9.302;2024-03-17T01:53:20;7.25;99.84
66119;DHT22;52912;48.564;9.302;2024-03-17T01:55:47;7.21;99.99
66119;DHT22;52912;48.564;9.302;2024-03-17T01:58:12;7.18;99.99
66119;DHT22;52912;48.564;9.302;2024-03-17T02:00:39;7.25;99.99
66119;DHT22;52912;48.564;9.302;2024-03-17T02:03:07;7.21;99.94
66119;DHT22;52912;48.564;9.302;2024-03-17T02:05:32;7.25;99.85
66119;DHT22;52912;48.564;9.302;2024-03-17T02:07:58;7.29;99.96
66119;DHT22;52912;48.564;9.302;2024-03-17T02:10:23;7.30;99.73
66119;DHT22;52912;48.564;9.302;2024-03-17T02:12:49;7.32;99.45
66119;DHT22;52912;48.564;9.302;2024-03-17T02:15:14;7.16;99.75
66119;DHT22;52912;48.564;9.302;2024-03-17T02:17:40;7.16;99.93
66119;DHT22;52912;48.564;9.302;2024-03-17T02:20:07;7.12;99.99
66119;DHT22;52912;48.564;9.302;2024-03-17T02:22:34;7.14;99.99
66119;DHT22;52912;48.564;9.302;2024-03-17T02:25:00;7.12;99.99
66119;DHT22;52912;48.564;9.302;2024-03-17T02:27:25;7.16;99.99
66119;DHT22;52912;48.564;9.302;2024-03-17T02:29:51;7.18;99.99
66119;DHT22;52912;48.564;9.302;2024-03-17T02:32:16;7.12;99.99
66119;DHT22;52912;48.564;9.302;2024-03-17T02:34:42;7.08;99.99
66119;DHT22;52912;48.564;9.302;2024-03-17T02:37:07;7.07;99.99
66119;DHT22;52912;48.564;9.302;2024-03-17T02:39:34;7.07;99.99
66119;DHT22;52912;48.564;9.302;2024-03-17T02:42:07;7.08;99.99
66119;DHT22;52912;48.564;9.302;2024-03-17T02:44:34;7.11;99.99
66119;DHT22;52912;48.564;9.302;2024-03-17T02:47:00;7.08;99.99
66119;DHT22;52912;48.564;9.302;2024-03-17T02:49:27;6.95;99.99
66119;DHT22;52912;48.564;9.302;2024-03-17T02:51:53;7.01;99.99
66119;DHT22;52912;48.564;9.302;2024-03-17T02:54:18;6.98;99.99
66119;DHT22;52912;48.564;9.302;2024-03-17T02:56:45;7.07;99.99
66119;DHT22;52912;48.564;9.302;2024-03-17T02:59:10;7.01;99.99
66119;DHT22;52912;48.564;9.302;2024-03-17T03:01:36;6.98;99.99
66119;DHT22;52912;48.564;9.302;2024-03-17T03:04:01;7.08;99.99
66119;DHT22;52912;48.564;9.302;2024-03-17T03:06:27;7.09;99.99
66119;DHT22;52912;48.564;9.302;2024-03-17T03:08:52;7.09;99.99
66119;DHT22;52912;48.564;9.302;2024-03-17T03:11:17;6.94;99.99
66119;DHT22;52912;48.564;9.302;2024-03-17T03:13:44;6.88;99.99
66119;DHT22;52912;48.564;9.302;2024-03-17T03:16:11;6.90;99.99
66119;DHT22;52912;48.564;9.302;2024-03-17T03:18:37;6.87;99.99
66119;DHT22;52912;48.564;9.302;2024-03-17T03:21:03;6.93;99.99
66119;DHT22;52912;48.564;9.302;2024-03-17T03:23:28;7.00;99.99
66119;DHT22;52912;48.564;9.302;2024-03-17T03:25:57;7.02;99.99
66119;DHT22;52912;48.564;9.302;2024-03-17T03:28:23;7.08;99.99
66119;DHT22;52912;48.564;9.302;2024-03-17T03:30:49;7.09;99.99
66119;DHT22;52912;48.564;9.302;2024-03-17T03:33:15;7.04;99.99
66119;DHT22;52912;48.564;9.302;2024-03-17T03:35:40;7.01;99.99
66119;DHT22;52912;48.564;9.302;2024-03-17T03:38:06;7.05;99.99
66119;DHT22;52912;48.564;9.302;2024-03-17T03:40:31;7.07;99.99
66119;DHT22;52912;48.564;9.302;2024-03-17T03:42:57;7.11;99.99
66119;DHT22;52912;48.564;9.302;2024-03-17T03:45:22;7.11;99.99
66119;DHT22;52912;48.564;9.302;2024-03-17T03:47:49;7.16;99.99
66119;DHT22;52912;48.564;9.302;2024-03-17T03:50:21;7.16;99.99
66119;DHT22;52912;48.564;9.302;2024-03-17T03:52:47;7.23;99.99
66119;DHT22;52912;48.564;9.302;2024-03-17T03:55:12;7.21;99.99
66119;DHT22;52912;48.564;9.302;2024-03-17T03:57:38;7.18;99.99
66119;DHT22;52912;48.564;9.302;2024-03-17T04:00:04;7.12;99.99
66119;DHT22;52912;48.564;9.302;2024-03-17T04:02:30;7.05;99.99
66119;DHT22;52912;48.564;9.302;2024-03-17T04:04:57;7.07;99.99
66119;DHT22;52912;48.564;9.302;2024-03-17T04:07:22;7.05;99.99
66119;DHT22;52912;48.564;9.302;2024-03-17T04:09:48;7.09;99.99
66119;DHT22;52912;48.564;9.302;2024-03-17T04:12:13;7.12;99.99
66119;DHT22;52912;48.564;9.302;2024-03-17T04:14:39;7.18;99.99
66119;DHT22;52912;48.564;9.302;2024-03-17T04:17:04;7.16;99.99
66119;DHT22;52912;48.564;9.302;2024-03-17T04:19:30;7.09;99.99
66119;DHT22;52912;48.564;9.302;2024-03-17T04:21:57;7.05;99.99
66119;DHT22;52912;48.564;9.302;2024-03-17T04:24:22;7.07;99.99
66119;DHT22;52912;48.564;9.302;2024-03-17T04:26:48;7.09;99.99
66119;DHT22;52912;48.564;9.302;2024-03-17T04:29:13;7.08;99.99
66119;DHT22;52912;48.564;9.302;2024-03-17T04:31:39;7.09;99.99
66119;DHT22;52912;48.564;9.302;2024-03-17T04:34:04;7.12;99.99
66119;DHT22;52912;48.564;9.302;2024-03-17T04:36:30;7.18;99.99
66119;DHT22;52912;48.564;9.302;2024-03-17T04:38:56;7.15;99.99
66119;DHT22;52912;48.564;9.302;2024-03-17T04:41:22;7.05;99.99
66119;DHT22;52912;48.564;9.302;2024-03-17T04:43:47;6.98;99.99
66119;DHT22;52912;48.564;9.302;2024-03-17T04:46:13;6.97;99.99
66119;DHT22;52912;48.564;9.302;2024-03-17T04:48:38;6.97;99.99
66119;DHT22;52912;48.564;9.302;2024-03-17T04:51:04;6.98;99.99
66119;DHT22;52912;48.564;9.302;2024-03-17T04:53:30;7.08;99.99
66119;DHT22;52912;48.564;9.302;2024-03-17T04:56:04;7.14;99.99
66119;DHT22;52912;48.564;9.302;2024-03-17T04:58:30;7.16;99.99
66119;DHT22;52912;48.564;9.302;2024-03-17T05:00:56;7.18;99.99
66119;DHT22;52912;48.564;9.302;2024-03-17T05:03:21;7.08;99.99
66119;DHT22;52912;48.564;9.302;2024-03-17T05:05:47;6.97;99.99
66119;DHT22;52912;48.564;9.302;2024-03-17T05:08:12;6.87;99.99
66119;DHT22;52912;48.564;9.302;2024-03-17T05:10:37;6.88;99.99
66119;DHT22;52912;48.564;9.302;2024-03-17T05:13:04;6.88;99.99
66119;DHT22;52912;48.564;9.302;2024-03-17T05:15:30;6.81;99.99
66119;DHT22;52912;48.564;9.302;2024-03-17T05:17:55;6.81;99.99
66119;DHT22;52912;48.564;9.302;2024-03-17T05:20:21;6.83;99.99
66119;DHT22;52912;48.564;9.302;2024-03-17T05:22:46;6.84;99.99
66119;DHT22;52912;48.564;9.302;2024-03-17T05:25:11;6.87;99.99
66119;DHT22;52912;48.564;9.302;2024-03-17T05:27:37;6.84;99.99
66119;DHT22;52912;48.564;9.302;2024-03-17T05:30:05;6.95;99.99
66119;DHT22;52912;48.564;9.302;2024-03-17T05:32:31;7.01;99.99
66119;DHT22;52912;48.564;9.302;2024-03-17T05:34:56;7.01;99.99
66119;DHT22;52912;48.564;9.302;2024-03-17T05:37:22;7.01;99.99
66119;DHT22;52912;48.564;9.302;2024-03-17T05:39:47;7.00;99.99
66119;DHT22;52912;48.564;9.302;2024-03-17T05:42:13;6.94;99.99
66119;DHT22;52912;48.564;9.302;2024-03-17T05:44:38;6.94;99.99
66119;DHT22;52912;48.564;9.302;2024-03-17T05:47:05;6.95;99.99
66119;DHT22;52912;48.564;9.302;2024-03-17T05:49:30;7.01;99.99
66119;DHT22;52912;48.564;9.302;2024-03-17T05:51:56;7.01;99.99
66119;DHT22;52912;48.564;9.302;2024-03-17T05:54:21;6.98;99.99
66119;DHT22;52912;48.564;9.302;2024-03-17T05:56:47;7.00;99.99
66119;DHT22;52912;48.564;9.302;2024-03-17T05:59:12;7.05;99.99
66119;DHT22;52912;48.564;9.302;2024-03-17T06:01:38;7.12;99.99
66119;DHT22;52912;48.564;9.302;2024-03-17T06:04:04;7.16;99.99
66119;DHT22;52912;48.564;9.302;2024-03-17T06:06:30;7.26;99.99
66119;DHT22;52912;48.564;9.302;2024-03-17T06:08:56;7.25;99.99
66119;DHT22;52912;48.564;9.302;2024-03-17T06:11:21;7.15;99.99
66119;DHT22;52912;48.564;9.302;2024-03-17T06:13:46;6.88;99.99
66119;DHT22;52912;48.564;9.302;2024-03-17T06:16:12;6.80;99.99
66119;DHT22;52912;48.564;9.302;2024-03-17T06:18:37;6.77;99.99
66119;DHT22;52912;48.564;9.302;2024-03-17T06:21:05;6.83;99.99
66119;DHT22;52912;48.564;9.302;2024-03-17T06:23:30;6.84;99.99
66119;DHT22;52912;48.564;9.302;2024-03-17T06:25:55;7.01;99.99
66119;DHT22;52912;48.564;9.302;2024-03-17T06:28:21;7.18;99.99
66119;DHT22;52912;48.564;9.302;2024-03-17T06:30:55;7.23;99.99
66119;DHT22;52912;48.564;9.302;2024-03-17T06:33:20;7.21;99.99
66119;DHT22;52912;48.564;9.302;2024-03-17T06:35:46;7.05;99.99
66119;DHT22;52912;48.564;9.302;2024-03-17T06:38:13;7.09;99.99
66119;DHT22;52912;48.564;9.302;2024-03-17T06:40:39;7.30;99.99
66119;DHT22;52912;48.564;9.302;2024-03-17T06:43:04;7.36;99.99
66119;DHT22;52912;48.564;9.302;2024-03-17T06:45:30;7.38;99.99
66119;DHT22;52912;48.564;9.302;2024-03-17T06:47:55;7.43;99.99
66119;DHT22;52912;48.564;9.302;2024-03-17T06:50:21;7.47;99.99
66119;DHT22;52912;48.564;9.302;2024-03-17T06:52:46;7.64;99.99
66119;DHT22;52912;48.564;9.302;2024-03-17T06:55:13;7.75;99.99
66119;DHT22;52912;48.564;9.302;2024-03-17T06:57:41;7.87;99.99
66119;DHT22;52912;48.564;9.302;2024-03-17T07:00:08;7.95;99.99
66119;DHT22;52912;48.564;9.302;2024-03-17T07:02:33;7.98;99.99
66119;DHT22;52912;48.564;9.302;2024-03-17T07:04:59;7.99;99.99
66119;DHT22;52912;48.564;9.302;2024-03-17T07:07:26;7.92;99.99
66119;DHT22;52912;48.564;9.302;2024-03-17T07:09:52;7.99;99.99
66119;DHT22;52912;48.564;9.302;2024-03-17T07:12:19;8.09;99.99
66119;DHT22;52912;48.564;9.302;2024-03-17T07:14:44;7.99;99.99
66119;DHT22;52912;48.564;9.302;2024-03-17T07:17:09;8.01;99.99
66119;DHT22;52912;48.564;9.302;2024-03-17T07:19:35;8.12;99.99
66119;DHT22;52912;48.564;9.302;2024-03-17T07:22:00;8.26;99.99
66119;DHT22;52912;48.564;9.302;2024-03-17T07:24:26;8.36;99.99
66119;DHT22;52912;48.564;9.302;2024-03-17T07:26:51;8.37;99.99
66119;DHT22;52912;48.564;9.302;2024-03-17T07:29:18;8.47;99.97
66119;DHT22;52912;48.564;9.302;2024-03-17T07:31:43;8.39;99.99
66119;DHT22;52912;48.564;9.302;2024-03-17T07:34:09;8.40;99.99
66119;DHT22;52912;48.564;9.302;2024-03-17T07:36:34;8.37;99.99
66119;DHT22;52912;48.564;9.302;2024-03-17T07:39:00;8.40;99.99
66119;DHT22;52912;48.564;9.302;2024-03-17T07:41:25;8.53;99.99
66119;DHT22;52912;48.564;9.302;2024-03-17T07:43:51;8.63;99.99
66119;DHT22;52912;48.564;9.302;2024-03-17T07:46:17;8.64;99.84
66119;DHT22;52912;48.564;9.302;2024-03-17T07:48:44;8.65;99.99
66119;DHT22;52912;48.564;9.302;2024-03-17T07:51:10;8.71;99.99
66119;DHT22;52912;48.564;9.302;2024-03-17T07:53:36;8.80;99.99
66119;DHT22;52912;48.564;9.302;2024-03-17T07:56:03;8.88;99.96
66119;DHT22;52912;48.564;9.302;2024-03-17T07:58:29;9.08;99.75
66119;DHT22;52912;48.564;9.302;2024-03-17T08:00:58;9.18;99.51
66119;DHT22;52912;48.564;9.302;2024-03-17T08:03:25;9.19;99.12
66119;DHT22;52912;48.564;9.302;2024-03-17T08:05:51;9.16;99.20
66119;DHT22;52912;48.564;9.302;2024-03-17T08:08:16;9.12;99.38
66119;DHT22;52912;48.564;9.302;2024-03-17T08:10:42;9.27;99.22
66119;DHT22;52912;48.564;9.302;2024-03-17T08:13:07;9.33;98.94
66119;DHT22;52912;48.564;9.302;2024-03-17T08:15:33;9.43;98.62
66119;DHT22;52912;48.564;9.302;2024-03-17T08:17:58;9.50;98.29
66119;DHT22;52912;48.564;9.302;2024-03-17T08:20:25;9.47;98.12
66119;DHT22;52912;48.564;9.302;2024-03-17T08:22:50;9.55;98.42
66119;DHT22;52912;48.564;9.302;2024-03-17T08:25:16;9.74;98.25
66119;DHT22;52912;48.564;9.302;2024-03-17T08:27:41;9.94;97.56
66119;DHT22;52912;48.564;9.302;2024-03-17T08:30:08;9.91;97.70
66119;DHT22;52912;48.564;9.302;2024-03-17T08:32:34;9.97;95.65
66119;DHT22;52912;48.564;9.302;2024-03-17T08:34:59;10.20;95.27
66119;DHT22;52912;48.564;9.302;2024-03-17T08:37:26;10.61;94.13
66119;DHT22;52912;48.564;9.302;2024-03-17T08:39:52;10.63;94.39
66119;DHT22;52912;48.564;9.302;2024-03-17T08:42:17;10.77;94.09
66119;DHT22;52912;48.564;9.302;2024-03-17T08:44:45;10.80;93.73
66119;DHT22;52912;48.564;9.302;2024-03-17T08:47:11;10.60;94.06
66119;DHT22;52912;48.564;9.302;2024-03-17T08:49:36;10.89;93.77
66119;DHT22;52912;48.564;9.302;2024-03-17T08:52:02;10.84;93.74
66119;DHT22;52912;48.564;9.302;2024-03-17T08:54:29;10.60;94.53
66119;DHT22;52912;48.564;9.302;2024-03-17T08:56:54;10.92;94.55
66119;DHT22;52912;48.564;9.302;2024-03-17T08:59:20;10.88;93.48
66119;DHT22;52912;48.564;9.302;2024-03-17T09:01:45;11.04;93.27
66119;DHT22;52912;48.564;9.302;2024-03-17T09:04:10;11.16;92.52
66119;DHT22;52912;48.564;9.302;2024-03-17T09:06:36;11.43;92.27
66119;DHT22;52912;48.564;9.302;2024-03-17T09:09:01;11.74;91.40
66119;DHT22;52912;48.564;9.302;2024-03-17T09:11:29;11.66;90.66
66119;DHT22;52912;48.564;9.302;2024-03-17T09:13:54;11.53;91.36
66119;DHT22;52912;48.564;9.302;2024-03-17T09:16:20;11.53;91.18
66119;DHT22;52912;48.564;9.302;2024-03-17T09:18:45;11.73;90.93
66119;DHT22;52912;48.564;9.302;2024-03-17T09:21:11;11.87;89.99
66119;DHT22;52912;48.564;9.302;2024-03-17T09:23:36;11.91;87.86
66119;DHT22;52912;48.564;9.302;2024-03-17T09:26:03;11.74;88.02
66119;DHT22;52912;48.564;9.302;2024-03-17T09:28:31;12.25;88.19
66119;DHT22;52912;48.564;9.302;2024-03-17T09:30:57;12.46;86.70
66119;DHT22;52912;48.564;9.302;2024-03-17T09:33:24;12.37;87.13
66119;DHT22;52912;48.564;9.302;2024-03-17T09:35:53;12.46;88.02
66119;DHT22;52912;48.564;9.302;2024-03-17T09:38:19;12.63;86.40
66119;DHT22;52912;48.564;9.302;2024-03-17T09:40:46;12.74;83.87
66119;DHT22;52912;48.564;9.302;2024-03-17T09:43:11;12.80;85.18
66119;DHT22;52912;48.564;9.302;2024-03-17T09:45:38;12.84;85.00
66119;DHT22;52912;48.564;9.302;2024-03-17T09:48:04;12.96;84.51
66119;DHT22;52912;48.564;9.302;2024-03-17T09:50:31;12.95;84.49
66119;DHT22;52912;48.564;9.302;2024-03-17T09:52:59;12.92;83.98
66119;DHT22;52912;48.564;9.302;2024-03-17T09:55:25;13.03;83.58
66119;DHT22;52912;48.564;9.302;2024-03-17T09:57:50;12.74;83.31
66119;DHT22;52912;48.564;9.302;2024-03-17T10:00:16;12.84;84.85
66119;DHT22;52912;48.564;9.302;2024-03-17T10:02:44;12.63;85.38
66119;DHT22;52912;48.564;9.302;2024-03-17T10:05:18;12.88;83.52
66119;DHT22;52912;48.564;9.302;2024-03-17T10:07:43;12.88;85.37
66119;DHT22;52912;48.564;9.302;2024-03-17T10:10:12;12.89;85.75
66119;DHT22;52912;48.564;9.302;2024-03-17T10:12:38;13.01;84.48
66119;DHT22;52912;48.564;9.302;2024-03-17T10:15:04;12.99;84.68
66119;DHT22;52912;48.564;9.302;2024-03-17T10:17:30;13.39;83.32
66119;DHT22;52912;48.564;9.302;2024-03-17T10:20:11;13.36;83.51
66119;DHT22;52912;48.564;9.302;2024-03-17T10:22:36;13.68;81.97
66119;DHT22;52912;48.564;9.302;2024-03-17T10:25:02;13.97;81.50
66119;DHT22;52912;48.564;9.302;2024-03-17T10:27:28;14.01;80.87
66119;DHT22;52912;48.564;9.302;2024-03-17T10:29:53;14.29;79.86
66119;DHT22;52912;48.564;9.302;2024-03-17T10:32:19;14.60;79.26
66119;DHT22;52912;48.564;9.302;2024-03-17T10:34:45;14.29;79.23
66119;DHT22;52912;48.564;9.302;2024-03-17T10:37:14;14.38;79.16
66119;DHT22;52912;48.564;9.302;2024-03-17T10:39:40;14.19;79.19
66119;DHT22;52912;48.564;9.302;2024-03-17T10:42:07;14.12;80.06
66119;DHT22;52912;48.564;9.302;2024-03-17T10:44:34;14.47;78.99
66119;DHT22;52912;48.564;9.302;2024-03-17T10:47:02;14.09;78.91
66119;DHT22;52912;48.564;9.302;2024-03-17T10:49:29;14.32;79.29
66119;DHT22;52912;48.564;9.302;2024-03-17T10:51:57;14.78;78.91
66119;DHT22;52912;48.564;9.302;2024-03-17T10:54:25;15.18;77.97
66119;DHT22;52912;48.564;9.302;2024-03-17T10:56:50;15.13;77.23
66119;DHT22;52912;48.564;9.302;2024-03-17T10:59:17;15.08;76.98
66119;DHT22;52912;48.564;9.302;2024-03-17T11:01:44;14.84;78.38
66119;DHT22;52912;48.564;9.302;2024-03-17T11:04:12;15.12;77.11
66119;DHT22;52912;48.564;9.302;2024-03-17T11:06:38;15.06;77.86
66119;DHT22;52912;48.564;9.302;2024-03-17T11:09:04;15.23;77.95
66119;DHT22;52912;48.564;9.302;2024-03-17T11:11:36;14.93;76.77
66119;DHT22;52912;48.564;9.302;2024-03-17T11:14:16;15.23;76.68
66119;DHT22;52912;48.564;9.302;2024-03-17T11:16:41;14.95;76.90
66119;DHT22;52912;48.564;9.302;2024-03-17T11:19:07;15.22;75.82
66119;DHT22;52912;48.564;9.302;2024-03-17T11:21:33;15.29;75.74
66119;DHT22;52912;48.564;9.302;2024-03-17T11:24:00;15.20;75.29
66119;DHT22;52912;48.564;9.302;2024-03-17T11:26:30;15.06;74.79
66119;DHT22;52912;48.564;9.302;2024-03-17T11:28:57;14.93;75.53
66119;DHT22;52912;48.564;9.302;2024-03-17T11:31:41;15.05;74.78
66119;DHT22;52912;48.564;9.302;2024-03-17T11:34:35;15.20;75.42
66119;DHT22;52912;48.564;9.302;2024-03-17T11:37:02;15.02;73.95
66119;DHT22;52912;48.564;9.302;2024-03-17T11:39:54;15.06;74.34
66119;DHT22;52912;48.564;9.302;2024-03-17T11:42:20;15.20;74.10
66119;DHT22;52912;48.564;9.302;2024-03-17T11:44:58;15.16;74.09
66119;DHT22;52912;48.564;9.302;2024-03-17T11:47:33;15.15;73.56
66119;DHT22;52912;48.564;9.302;2024-03-17T11:50:02;15.40;74.76
66119;DHT22;52912;48.564;9.302;2024-03-17T12:07:48;15.77;72.17
66119;DHT22;52912;48.564;9.302;2024-03-17T12:10:14;15.85;73.94
66119;DHT22;52912;48.564;9.302;2024-03-17T12:12:39;15.42;74.48
66119;DHT22;52912;48.564;9.302;2024-03-17T12:15:16;15.46;75.19
66119;DHT22;52912;48.564;9.302;2024-03-17T12:17:41;15.36;74.58
66119;DHT22;52912;48.564;9.302;2024-03-17T12:20:16;15.30;74.81
66119;DHT22;52912;48.564;9.302;2024-03-17T12:22:42;15.15;74.46
66119;DHT22;52912;48.564;9.302;2024-03-17T12:25:16;15.43;74.48
66119;DHT22;52912;48.564;9.302;2024-03-17T12:27:43;15.22;74.86
66119;DHT22;52912;48.564;9.302;2024-03-17T12:30:10;15.12;74.81
66119;DHT22;52912;48.564;9.302;2024-03-17T12:32:35;15.19;74.76
66119;DHT22;52912;48.564;9.302;2024-03-17T12:35:01;15.20;74.05
66119;DHT22;52912;48.564;9.302;2024-03-17T12:37:27;15.18;73.93
66119;DHT22;52912;48.564;9.302;2024-03-17T12:39:53;14.91;74.63
66119;DHT22;52912;48.564;9.302;2024-03-17T12:42:24;15.08;72.98
66119;DHT22;52912;48.564;9.302;2024-03-17T12:44:51;14.99;72.74
66119;DHT22;52912;48.564;9.302;2024-03-17T12:47:18;14.84;71.91
66119;DHT22;52912;48.564;9.302;2024-03-17T12:49:49;14.88;72.75
66119;DHT22;52912;48.564;9.302;2024-03-17T12:52:18;14.92;72.94
66119;DHT22;52912;48.564;9.302;2024-03-17T12:54:43;14.98;73.12
66119;DHT22;52912;48.564;9.302;2024-03-17T12:57:09;15.16;73.61
66119;DHT22;52912;48.564;9.302;2024-03-17T12:59:38;15.06;72.75
66119;DHT22;52912;48.564;9.302;2024-03-17T13:02:06;15.10;72.86
66119;DHT22;52912;48.564;9.302;2024-03-17T13:04:35;15.10;72.61
66119;DHT22;52912;48.564;9.302;2024-03-17T13:07:09;14.98;72.47
66119;DHT22;52912;48.564;9.302;2024-03-17T13:09:36;15.02;71.73
66119;DHT22;52912;48.564;9.302;2024-03-17T13:12:02;15.03;72.09
66119;DHT22;52912;48.564;9.302;2024-03-17T13:14:28;15.10;72.32
66119;DHT22;52912;48.564;9.302;2024-03-17T13:16:54;15.22;72.59
66119;DHT22;52912;48.564;9.302;2024-03-17T13:19:20;15.32;72.65
66119;DHT22;52912;48.564;9.302;2024-03-17T13:21:45;15.51;72.71
66119;DHT22;52912;48.564;9.302;2024-03-17T13:24:11;15.70;72.34
66119;DHT22;52912;48.564;9.302;2024-03-17T13:26:36;15.77;70.61
66119;DHT22;52912;48.564;9.302;2024-03-17T13:29:01;15.58;72.19
66119;DHT22;52912;48.564;9.302;2024-03-17T13:31:27;15.62;71.30
66119;DHT22;52912;48.564;9.302;2024-03-17T13:33:54;15.78;71.58
66119;DHT22;52912;48.564;9.302;2024-03-17T13:36:19;16.05;72.53
66119;DHT22;52912;48.564;9.302;2024-03-17T13:38:45;16.10;71.85
66119;DHT22;52912;48.564;9.302;2024-03-17T13:41:10;15.88;70.84
66119;DHT22;52912;48.564;9.302;2024-03-17T13:43:36;15.58;71.00
66119;DHT22;52912;48.564;9.302;2024-03-17T13:46:01;15.61;70.91
66119;DHT22;52912;48.564;9.302;2024-03-17T13:48:27;15.39;72.74
66119;DHT22;52912;48.564;9.302;2024-03-17T13:50:53;15.37;71.47
66119;DHT22;52912;48.564;9.302;2024-03-17T13:53:19;15.26;72.09
66119;DHT22;52912;48.564;9.302;2024-03-17T13:55:44;15.19;71.07
66119;DHT22;52912;48.564;9.302;2024-03-17T13:58:10;15.36;71.51
66119;DHT22;52912;48.564;9.302;2024-03-17T14:00:35;15.53;71.89
66119;DHT22;52912;48.564;9.302;2024-03-17T14:03:01;15.55;71.21
66119;DHT22;52912;48.564;9.302;2024-03-17T14:05:27;15.62;70.77
66119;DHT22;52912;48.564;9.302;2024-03-17T14:07:55;15.89;71.47
66119;DHT22;52912;48.564;9.302;2024-03-17T14:10:21;16.01;70.79
66119;DHT22;52912;48.564;9.302;2024-03-17T14:12:47;16.20;70.02
66119;DHT22;52912;48.564;9.302;2024-03-17T14:15:13;16.54;70.01
66119;DHT22;52912;48.564;9.302;2024-03-17T14:17:40;16.75;69.93
66119;DHT22;52912;48.564;9.302;2024-03-17T14:20:07;16.81;70.12
66119;DHT22;52912;48.564;9.302;2024-03-17T14:22:32;16.91;70.31
66119;DHT22;52912;48.564;9.302;2024-03-17T14:24:59;16.99;68.51
66119;DHT22;52912;48.564;9.302;2024-03-17T14:27:24;17.01;68.58
66119;DHT22;52912;48.564;9.302;2024-03-17T14:29:50;16.99;68.12
66119;DHT22;52912;48.564;9.302;2024-03-17T14:32:15;16.89;67.79
66119;DHT22;52912;48.564;9.302;2024-03-17T14:34:41;16.79;69.19
66119;DHT22;52912;48.564;9.302;2024-03-17T14:37:06;16.79;69.16
66119;DHT22;52912;48.564;9.302;2024-03-17T14:39:32;16.54;70.28
66119;DHT22;52912;48.564;9.302;2024-03-17T14:41:58;16.58;70.54
66119;DHT22;52912;48.564;9.302;2024-03-17T14:44:25;16.89;69.34
66119;DHT22;52912;48.564;9.302;2024-03-17T14:46:50;17.03;67.95
66119;DHT22;52912;48.564;9.302;2024-03-17T14:49:16;17.30;68.59
66119;DHT22;52912;48.564;9.302;2024-03-17T14:51:41;17.60;68.10
66119;DHT22;52912;48.564;9.302;2024-03-17T14:54:06;17.96;68.26
66119;DHT22;52912;48.564;9.302;2024-03-17T14:56:32;17.81;67.70
66119;DHT22;52912;48.564;9.302;2024-03-17T14:58:59;17.09;69.32
66119;DHT22;52912;48.564;9.302;2024-03-17T15:01:24;17.11;68.29
66119;DHT22;52912;48.564;9.302;2024-03-17T15:03:50;16.49;68.23
66119;DHT22;52912;48.564;9.302;2024-03-17T15:06:15;16.41;68.58
66119;DHT22;52912;48.564;9.302;2024-03-17T15:08:41;16.33;69.03
66119;DHT22;52912;48.564;9.302;2024-03-17T15:11:06;16.32;68.68
66119;DHT22;52912;48.564;9.302;2024-03-17T15:13:31;16.46;68.00
66119;DHT22;52912;48.564;9.302;2024-03-17T15:15:58;16.09;69.79
66119;DHT22;52912;48.564;9.302;2024-03-17T15:18:24;16.08;69.57
66119;DHT22;52912;48.564;9.302;2024-03-17T15:20:51;16.17;70.28
66119;DHT22;52912;48.564;9.302;2024-03-17T15:23:17;15.95;69.54
66119;DHT22;52912;48.564;9.302;2024-03-17T15:25:42;15.99;69.43
66119;DHT22;52912;48.564;9.302;2024-03-17T15:28:08;16.02;69.17
66119;DHT22;52912;48.564;9.302;2024-03-17T15:30:33;15.89;70.12
66119;DHT22;52912;48.564;9.302;2024-03-17T15:33:00;15.70;71.16
66119;DHT22;52912;48.564;9.302;2024-03-17T15:35:25;15.68;71.09
66119;DHT22;52912;48.564;9.302;2024-03-17T15:37:51;15.44;71.54
66119;DHT22;52912;48.564;9.302;2024-03-17T15:40:18;15.53;70.77
66119;DHT22;52912;48.564;9.302;2024-03-17T15:42:44;15.37;70.29
66119;DHT22;52912;48.564;9.302;2024-03-17T15:45:10;15.30;71.22
66119;DHT22;52912;48.564;9.302;2024-03-17T15:47:35;15.27;70.69
66119;DHT22;52912;48.564;9.302;2024-03-17T15:50:02;15.22;71.51